Time;durP1;ratioP1;P1;durP2;ratioP2;P2;SDS_P1;SDS_P2;PMS_P1;PMS_P2;Temp;Humidity;BMP_temperature;BMP_pressure;BME280_temperature;BME280_humidity;BME280_pressure;Samples;Min_cycle;Max_cycle;Signal;HPM_P1;HPM_P2
2021/11/20 00:00:32;;;;;;;67.05;17.25;;;;;;;3.31;78.04688;96498.71;;;;
2021/11/20 00:01:36;;;;;;;67.05;17.25;;;;;;;3.31;78.04688;96498.71;;;;
2021/11/20 00:02:38;;;;;;;67.05;17.25;;;;;;;3.31;78.04688;96498.71;;;;
2021/11/20 00:03:39;;;;;;;67.05;17.25;;;;;;;3.31;78.04688;96498.71;;;;
2021/11/20 00:04:40;;;;;;;67.05;17.25;;;;;;;3.31;78.04688;96498.71;;;;
2021/11/20 00:05:41;;;;;;;67.05;17.25;;;;;;;3.31;78.04688;96498.71;;;;
2021/11/20 00:06:45;;;;;;;67.05;17.25;;;;;;;3.31;78.04688;96498.71;;;;
2021/11/20 00:07:49;;;;;;;67.05;17.25;;;;;;;3.31;78.04688;96498.71;;;;
2021/11/20 00:08:50;;;;;;;67.05;17.25;;;;;;;3.31;78.04688;96498.71;;;;
2021/11/20 00:09:51;;;;;;;67.05;17.25;;;;;;;3.31;78.04688;96498.71;;;;
2021/11/20 00:10:51;;;;;;;35.95;16.3;;;;;;;3.32;78.16504;96503.03;;;;
2021/11/20 00:11:55;;;;;;;35.95;16.3;;;;;;;3.32;78.16504;96503.03;;;;
2021/11/20 00:12:59;;;;;;;35.95;16.3;;;;;;;3.32;78.16504;96503.03;;;;
2021/11/20 00:14:00;;;;;;;35.95;16.3;;;;;;;3.32;78.16504;96503.03;;;;
2021/11/20 00:15:01;;;;;;;35.95;16.3;;;;;;;3.32;78.16504;96503.03;;;;
2021/11/20 00:16:05;;;;;;;35.95;16.3;;;;;;;3.32;78.16504;96503.03;;;;
2021/11/20 00:17:06;;;;;;;35.95;16.3;;;;;;;3.32;78.16504;96503.03;;;;
2021/11/20 00:18:07;;;;;;;35.95;16.3;;;;;;;3.32;78.16504;96503.03;;;;
2021/11/20 00:19:09;;;;;;;35.95;16.3;;;;;;;3.32;78.16504;96503.03;;;;
2021/11/20 00:20:10;;;;;;;35.95;16.3;;;;;;;3.32;78.16504;96503.03;;;;
2021/11/20 00:21:16;;;;;;;33.55;16.2;;;;;;;3.32;78.41699;96501.28;;;;
2021/11/20 00:22:21;;;;;;;33.55;16.2;;;;;;;3.32;78.41699;96501.28;;;;
2021/11/20 00:23:25;;;;;;;33.55;16.2;;;;;;;3.32;78.41699;96501.28;;;;
2021/11/20 00:24:29;;;;;;;33.55;16.2;;;;;;;3.32;78.41699;96501.28;;;;
2021/11/20 00:25:35;;;;;;;33.55;16.2;;;;;;;3.32;78.41699;96501.28;;;;
2021/11/20 00:26:39;;;;;;;33.55;16.2;;;;;;;3.32;78.41699;96501.28;;;;
2021/11/20 00:27:39;;;;;;;33.55;16.2;;;;;;;3.32;78.41699;96501.28;;;;
2021/11/20 00:28:41;;;;;;;33.55;16.2;;;;;;;3.32;78.41699;96501.28;;;;
2021/11/20 00:29:57;;;;;;;33.55;16.2;;;;;;;3.32;78.41699;96501.28;;;;
2021/11/20 00:31:05;;;;;;;33.55;16.2;;;;;;;3.32;78.41699;96501.28;;;;
2021/11/20 00:32:10;;;;;;;38.9;17.65;;;;;;;3.34;78.63086;96497.03;;;;
2021/11/20 00:33:14;;;;;;;38.9;17.65;;;;;;;3.34;78.63086;96497.03;;;;
2021/11/20 00:34:16;;;;;;;38.9;17.65;;;;;;;3.34;78.63086;96497.03;;;;
2021/11/20 00:35:19;;;;;;;38.9;17.65;;;;;;;3.34;78.63086;96497.03;;;;
2021/11/20 00:36:32;;;;;;;38.9;17.65;;;;;;;3.34;78.63086;96497.03;;;;
2021/11/20 00:37:33;;;;;;;38.9;17.65;;;;;;;3.34;78.63086;96497.03;;;;
2021/11/20 00:38:34;;;;;;;38.9;17.65;;;;;;;3.34;78.63086;96497.03;;;;
2021/11/20 00:39:36;;;;;;;38.9;17.65;;;;;;;3.34;78.63086;96497.03;;;;
2021/11/20 00:40:38;;;;;;;38.9;17.65;;;;;;;3.34;78.63086;96497.03;;;;
2021/11/20 00:41:41;;;;;;;38.9;17.65;;;;;;;3.34;78.63086;96497.03;;;;
2021/11/20 00:42:43;;;;;;;43.35;17.55;;;;;;;3.36;78.79199;96489.7;;;;
2021/11/20 00:43:44;;;;;;;43.35;17.55;;;;;;;3.36;78.79199;96489.7;;;;
2021/11/20 00:44:46;;;;;;;43.35;17.55;;;;;;;3.36;78.79199;96489.7;;;;
2021/11/20 00:45:48;;;;;;;43.35;17.55;;;;;;;3.36;78.79199;96489.7;;;;
2021/11/20 00:46:49;;;;;;;43.35;17.55;;;;;;;3.36;78.79199;96489.7;;;;
2021/11/20 00:47:50;;;;;;;43.35;17.55;;;;;;;3.36;78.79199;96489.7;;;;
2021/11/20 00:48:51;;;;;;;43.35;17.55;;;;;;;3.36;78.79199;96489.7;;;;
2021/11/20 00:49:57;;;;;;;43.35;17.55;;;;;;;3.36;78.79199;96489.7;;;;
2021/11/20 00:50:57;;;;;;;43.35;17.55;;;;;;;3.36;78.79199;96489.7;;;;
2021/11/20 00:52:01;;;;;;;43.35;17.55;;;;;;;3.36;78.79199;96489.7;;;;
2021/11/20 00:53:03;;;;;;;43.35;17.55;;;;;;;3.36;78.79199;96489.7;;;;
2021/11/20 00:54:04;;;;;;;44.55;17.65;;;;;;;3.44;78.93359;96487.89;;;;
2021/11/20 00:55:07;;;;;;;44.55;17.65;;;;;;;3.44;78.93359;96487.89;;;;
2021/11/20 00:56:10;;;;;;;44.55;17.65;;;;;;;3.44;78.93359;96487.89;;;;
2021/11/20 00:57:12;;;;;;;44.55;17.65;;;;;;;3.44;78.93359;96487.89;;;;
2021/11/20 00:58:13;;;;;;;44.55;17.65;;;;;;;3.44;78.93359;96487.89;;;;
2021/11/20 00:59:15;;;;;;;44.55;17.65;;;;;;;3.44;78.93359;96487.89;;;;
2021/11/20 01:00:16;;;;;;;44.55;17.65;;;;;;;3.44;78.93359;96487.89;;;;
2021/11/20 01:01:22;;;;;;;44.55;17.65;;;;;;;3.44;78.93359;96487.89;;;;
2021/11/20 01:02:26;;;;;;;44.55;17.65;;;;;;;3.44;78.93359;96487.89;;;;
2021/11/20 01:03:26;;;;;;;44.55;17.65;;;;;;;3.44;78.93359;96487.89;;;;
2021/11/20 01:04:28;;;;;;;31.15;15.9;;;;;;;3.49;78.87891;96485.14;;;;
2021/11/20 01:05:31;;;;;;;31.15;15.9;;;;;;;3.49;78.87891;96485.14;;;;
2021/11/20 01:06:32;;;;;;;31.15;15.9;;;;;;;3.49;78.87891;96485.14;;;;
2021/11/20 01:07:34;;;;;;;31.15;15.9;;;;;;;3.49;78.87891;96485.14;;;;
2021/11/20 01:08:35;;;;;;;31.15;15.9;;;;;;;3.49;78.87891;96485.14;;;;
2021/11/20 01:09:43;;;;;;;31.15;15.9;;;;;;;3.49;78.87891;96485.14;;;;
2021/11/20 01:10:45;;;;;;;31.15;15.9;;;;;;;3.49;78.87891;96485.14;;;;
2021/11/20 01:11:51;;;;;;;31.15;15.9;;;;;;;3.49;78.87891;96485.14;;;;
2021/11/20 01:12:55;;;;;;;31.15;15.9;;;;;;;3.49;78.87891;96485.14;;;;
2021/11/20 01:13:56;;;;;;;31.15;15.9;;;;;;;3.49;78.87891;96485.14;;;;
2021/11/20 01:14:59;;;;;;;28.05;15.2;;;;;;;3.51;79.0293;96488.48;;;;
2021/11/20 01:16:00;;;;;;;28.05;15.2;;;;;;;3.51;79.0293;96488.48;;;;
2021/11/20 01:17:04;;;;;;;28.05;15.2;;;;;;;3.51;79.0293;96488.48;;;;
2021/11/20 01:18:07;;;;;;;28.05;15.2;;;;;;;3.51;79.0293;96488.48;;;;
2021/11/20 01:19:09;;;;;;;28.05;15.2;;;;;;;3.51;79.0293;96488.48;;;;
2021/11/20 01:20:12;;;;;;;28.05;15.2;;;;;;;3.51;79.0293;96488.48;;;;
2021/11/20 01:21:13;;;;;;;28.05;15.2;;;;;;;3.51;79.0293;96488.48;;;;
2021/11/20 01:22:16;;;;;;;28.05;15.2;;;;;;;3.51;79.0293;96488.48;;;;
2021/11/20 01:23:19;;;;;;;28.05;15.2;;;;;;;3.51;79.0293;96488.48;;;;
2021/11/20 01:24:26;;;;;;;28.05;15.2;;;;;;;3.51;79.0293;96488.48;;;;
2021/11/20 01:25:27;;;;;;;29.3;14.8;;;;;;;3.53;79.15723;96472.3;;;;
2021/11/20 01:26:28;;;;;;;29.3;14.8;;;;;;;3.53;79.15723;96472.3;;;;
2021/11/20 01:27:30;;;;;;;29.3;14.8;;;;;;;3.53;79.15723;96472.3;;;;
2021/11/20 01:28:33;;;;;;;29.3;14.8;;;;;;;3.53;79.15723;96472.3;;;;
2021/11/20 01:29:36;;;;;;;29.3;14.8;;;;;;;3.53;79.15723;96472.3;;;;
2021/11/20 01:30:37;;;;;;;29.3;14.8;;;;;;;3.53;79.15723;96472.3;;;;
2021/11/20 01:31:39;;;;;;;29.3;14.8;;;;;;;3.53;79.15723;96472.3;;;;
2021/11/20 01:32:43;;;;;;;29.3;14.8;;;;;;;3.53;79.15723;96472.3;;;;
2021/11/20 01:33:43;;;;;;;29.3;14.8;;;;;;;3.53;79.15723;96472.3;;;;
2021/11/20 01:34:46;;;;;;;29.3;14.8;;;;;;;3.53;79.15723;96472.3;;;;
2021/11/20 01:35:46;;;;;;;29.2;14.95;;;;;;;3.49;79.33105;96470.45;;;;
2021/11/20 01:36:47;;;;;;;29.2;14.95;;;;;;;3.49;79.33105;96470.45;;;;
2021/11/20 01:37:49;;;;;;;29.2;14.95;;;;;;;3.49;79.33105;96470.45;;;;
2021/11/20 01:38:50;;;;;;;29.2;14.95;;;;;;;3.49;79.33105;96470.45;;;;
2021/11/20 01:39:51;;;;;;;29.2;14.95;;;;;;;3.49;79.33105;96470.45;;;;
2021/11/20 01:40:53;;;;;;;29.2;14.95;;;;;;;3.49;79.33105;96470.45;;;;
2021/11/20 01:41:54;;;;;;;29.2;14.95;;;;;;;3.49;79.33105;96470.45;;;;
2021/11/20 01:42:59;;;;;;;29.2;14.95;;;;;;;3.49;79.33105;96470.45;;;;
2021/11/20 01:44:00;;;;;;;29.2;14.95;;;;;;;3.49;79.33105;96470.45;;;;
2021/11/20 01:45:08;;;;;;;29.2;14.95;;;;;;;3.49;79.33105;96470.45;;;;
2021/11/20 01:46:21;;;;;;;29.2;14.95;;;;;;;3.49;79.33105;96470.45;;;;
2021/11/20 01:47:24;;;;;;;24.85;14.3;;;;;;;3.47;79.60938;96464.96;;;;
2021/11/20 01:48:28;;;;;;;24.85;14.3;;;;;;;3.47;79.60938;96464.96;;;;
2021/11/20 01:50:09;;;;;;;24.85;14.3;;;;;;;3.47;79.60938;96464.96;;;;
2021/11/20 01:51:14;;;;;;;24.85;14.3;;;;;;;3.47;79.60938;96464.96;;;;
2021/11/20 01:52:19;;;;;;;24.85;14.3;;;;;;;3.47;79.60938;96464.96;;;;
2021/11/20 01:53:31;;;;;;;24.85;14.3;;;;;;;3.47;79.60938;96464.96;;;;
2021/11/20 01:54:37;;;;;;;24.85;14.3;;;;;;;3.47;79.60938;96464.96;;;;
2021/11/20 01:55:45;;;;;;;24.85;14.3;;;;;;;3.47;79.60938;96464.96;;;;
2021/11/20 01:56:53;;;;;;;24.85;14.3;;;;;;;3.47;79.60938;96464.96;;;;
2021/11/20 01:58:14;;;;;;;26.05;13.5;;;;;;;3.53;79.72461;96442.92;;;;
2021/11/20 01:59:21;;;;;;;26.05;13.5;;;;;;;3.53;79.72461;96442.92;;;;
2021/11/20 02:00:27;;;;;;;26.05;13.5;;;;;;;3.53;79.72461;96442.92;;;;
2021/11/20 02:01:33;;;;;;;26.05;13.5;;;;;;;3.53;79.72461;96442.92;;;;
2021/11/20 02:02:39;;;;;;;26.05;13.5;;;;;;;3.53;79.72461;96442.92;;;;
2021/11/20 02:03:47;;;;;;;26.05;13.5;;;;;;;3.53;79.72461;96442.92;;;;
2021/11/20 02:05:04;;;;;;;26.05;13.5;;;;;;;3.53;79.72461;96442.92;;;;
2021/11/20 02:06:17;;;;;;;26.05;13.5;;;;;;;3.53;79.72461;96442.92;;;;
2021/11/20 02:07:27;;;;;;;26.05;13.5;;;;;;;3.53;79.72461;96442.92;;;;
2021/11/20 02:08:33;;;;;;;25;13.6;;;;;;;3.56;79.72266;96431.41;;;;
2021/11/20 02:09:41;;;;;;;25;13.6;;;;;;;3.56;79.72266;96431.41;;;;
2021/11/20 02:10:47;;;;;;;25;13.6;;;;;;;3.56;79.72266;96431.41;;;;
2021/11/20 02:11:53;;;;;;;25;13.6;;;;;;;3.56;79.72266;96431.41;;;;
2021/11/20 02:12:57;;;;;;;25;13.6;;;;;;;3.56;79.72266;96431.41;;;;
2021/11/20 02:14:01;;;;;;;25;13.6;;;;;;;3.56;79.72266;96431.41;;;;
2021/11/20 02:15:03;;;;;;;25;13.6;;;;;;;3.56;79.72266;96431.41;;;;
2021/11/20 02:16:08;;;;;;;25;13.6;;;;;;;3.56;79.72266;96431.41;;;;
2021/11/20 02:17:13;;;;;;;25;13.6;;;;;;;3.56;79.72266;96431.41;;;;
2021/11/20 02:18:16;;;;;;;25;13.6;;;;;;;3.56;79.72266;96431.41;;;;
2021/11/20 02:19:19;;;;;;;25.55;12.9;;;;;;;3.59;79.84375;96420.92;;;;
2021/11/20 02:20:24;;;;;;;25.55;12.9;;;;;;;3.59;79.84375;96420.92;;;;
2021/11/20 02:21:31;;;;;;;25.55;12.9;;;;;;;3.59;79.84375;96420.92;;;;
2021/11/20 02:22:36;;;;;;;25.55;12.9;;;;;;;3.59;79.84375;96420.92;;;;
2021/11/20 02:27:37;;;;;;;25.55;12.9;;;;;;;3.59;79.84375;96420.92;;;;
2021/11/20 02:28:40;;;;;;;25.55;12.9;;;;;;;3.59;79.84375;96420.92;;;;
2021/11/20 02:29:41;;;;;;;25;12.15;;;;;;;3.6;79.96973;96400.3;;;;
2021/11/20 02:32:46;;;;;;;25;12.15;;;;;;;3.6;79.96973;96400.3;;;;
2021/11/20 02:33:50;;;;;;;25;12.15;;;;;;;3.6;79.96973;96400.3;;;;
2021/11/20 02:34:51;;;;;;;25;12.15;;;;;;;3.6;79.96973;96400.3;;;;
2021/11/20 02:35:52;;;;;;;25;12.15;;;;;;;3.6;79.96973;96400.3;;;;
2021/11/20 02:36:56;;;;;;;25;12.15;;;;;;;3.6;79.96973;96400.3;;;;
2021/11/20 02:37:58;;;;;;;25;12.15;;;;;;;3.6;79.96973;96400.3;;;;
2021/11/20 02:39:00;;;;;;;25;12.15;;;;;;;3.6;79.96973;96400.3;;;;
2021/11/20 02:40:04;;;;;;;23.4;11.9;;;;;;;3.59;80.14844;96385.72;;;;
2021/11/20 02:41:07;;;;;;;23.4;11.9;;;;;;;3.59;80.14844;96385.72;;;;
2021/11/20 02:42:11;;;;;;;23.4;11.9;;;;;;;3.59;80.14844;96385.72;;;;
2021/11/20 02:43:16;;;;;;;23.4;11.9;;;;;;;3.59;80.14844;96385.72;;;;
2021/11/20 02:44:19;;;;;;;23.4;11.9;;;;;;;3.59;80.14844;96385.72;;;;
2021/11/20 02:45:23;;;;;;;23.4;11.9;;;;;;;3.59;80.14844;96385.72;;;;
2021/11/20 02:46:26;;;;;;;23.4;11.9;;;;;;;3.59;80.14844;96385.72;;;;
2021/11/20 02:47:29;;;;;;;23.4;11.9;;;;;;;3.59;80.14844;96385.72;;;;
2021/11/20 02:48:34;;;;;;;23.4;11.9;;;;;;;3.59;80.14844;96385.72;;;;
2021/11/20 02:49:35;;;;;;;23.4;11.9;;;;;;;3.59;80.14844;96385.72;;;;
2021/11/20 02:50:37;;;;;;;23.2;11.8;;;;;;;3.63;80.36719;96372.77;;;;
2021/11/20 02:51:41;;;;;;;23.2;11.8;;;;;;;3.63;80.36719;96372.77;;;;
2021/11/20 02:53:00;;;;;;;23.2;11.8;;;;;;;3.63;80.36719;96372.77;;;;
2021/11/20 02:54:01;;;;;;;23.2;11.8;;;;;;;3.63;80.36719;96372.77;;;;
2021/11/20 02:55:07;;;;;;;23.2;11.8;;;;;;;3.63;80.36719;96372.77;;;;
2021/11/20 02:56:09;;;;;;;23.2;11.8;;;;;;;3.63;80.36719;96372.77;;;;
2021/11/20 02:57:12;;;;;;;23.2;11.8;;;;;;;3.63;80.36719;96372.77;;;;
2021/11/20 02:58:17;;;;;;;23.2;11.8;;;;;;;3.63;80.36719;96372.77;;;;
2021/11/20 02:59:21;;;;;;;23.2;11.8;;;;;;;3.63;80.36719;96372.77;;;;
2021/11/20 03:00:22;;;;;;;23.2;11.8;;;;;;;3.63;80.36719;96372.77;;;;
2021/11/20 03:01:23;;;;;;;21.1;11.15;;;;;;;3.67;80.625;96367.01;;;;
2021/11/20 03:02:25;;;;;;;21.1;11.15;;;;;;;3.67;80.625;96367.01;;;;
2021/11/20 03:03:27;;;;;;;21.1;11.15;;;;;;;3.67;80.625;96367.01;;;;
2021/11/20 03:04:27;;;;;;;21.1;11.15;;;;;;;3.67;80.625;96367.01;;;;
2021/11/20 03:05:28;;;;;;;21.1;11.15;;;;;;;3.67;80.625;96367.01;;;;
2021/11/20 03:06:29;;;;;;;21.1;11.15;;;;;;;3.67;80.625;96367.01;;;;
2021/11/20 03:07:29;;;;;;;21.1;11.15;;;;;;;3.67;80.625;96367.01;;;;
2021/11/20 03:08:30;;;;;;;21.1;11.15;;;;;;;3.67;80.625;96367.01;;;;
2021/11/20 03:09:30;;;;;;;21.1;11.15;;;;;;;3.67;80.625;96367.01;;;;
2021/11/20 03:10:34;;;;;;;21.1;11.15;;;;;;;3.67;80.625;96367.01;;;;
2021/11/20 03:11:35;;;;;;;21.1;11.15;;;;;;;3.67;80.625;96367.01;;;;
2021/11/20 03:12:36;;;;;;;17.85;10.9;;;;;;;3.74;80.78516;96343.16;;;;
2021/11/20 03:13:37;;;;;;;17.85;10.9;;;;;;;3.74;80.78516;96343.16;;;;
2021/11/20 03:14:37;;;;;;;17.85;10.9;;;;;;;3.74;80.78516;96343.16;;;;
2021/11/20 03:15:38;;;;;;;17.85;10.9;;;;;;;3.74;80.78516;96343.16;;;;
2021/11/20 03:16:39;;;;;;;17.85;10.9;;;;;;;3.74;80.78516;96343.16;;;;
2021/11/20 03:17:42;;;;;;;17.85;10.9;;;;;;;3.74;80.78516;96343.16;;;;
2021/11/20 03:18:43;;;;;;;17.85;10.9;;;;;;;3.74;80.78516;96343.16;;;;
2021/11/20 03:19:44;;;;;;;17.85;10.9;;;;;;;3.74;80.78516;96343.16;;;;
2021/11/20 03:20:47;;;;;;;17.85;10.9;;;;;;;3.74;80.78516;96343.16;;;;
2021/11/20 03:21:50;;;;;;;17.85;10.9;;;;;;;3.74;80.78516;96343.16;;;;
2021/11/20 03:22:54;;;;;;;17.4;10.8;;;;;;;3.86;80.91309;96329.36;;;;
2021/11/20 03:23:58;;;;;;;17.4;10.8;;;;;;;3.86;80.91309;96329.36;;;;
2021/11/20 03:25:02;;;;;;;17.4;10.8;;;;;;;3.86;80.91309;96329.36;;;;
2021/11/20 03:26:04;;;;;;;17.4;10.8;;;;;;;3.86;80.91309;96329.36;;;;
2021/11/20 03:27:05;;;;;;;17.4;10.8;;;;;;;3.86;80.91309;96329.36;;;;
2021/11/20 03:28:06;;;;;;;17.4;10.8;;;;;;;3.86;80.91309;96329.36;;;;
2021/11/20 03:29:07;;;;;;;17.4;10.8;;;;;;;3.86;80.91309;96329.36;;;;
2021/11/20 03:30:07;;;;;;;17.4;10.8;;;;;;;3.86;80.91309;96329.36;;;;
2021/11/20 03:31:09;;;;;;;17.4;10.8;;;;;;;3.86;80.91309;96329.36;;;;
2021/11/20 03:32:10;;;;;;;17.4;10.8;;;;;;;3.86;80.91309;96329.36;;;;
2021/11/20 03:33:11;;;;;;;16.4;10.2;;;;;;;3.96;80.8584;96329.92;;;;
2021/11/20 03:34:13;;;;;;;16.4;10.2;;;;;;;3.96;80.8584;96329.92;;;;
2021/11/20 03:35:13;;;;;;;16.4;10.2;;;;;;;3.96;80.8584;96329.92;;;;
2021/11/20 03:36:15;;;;;;;16.4;10.2;;;;;;;3.96;80.8584;96329.92;;;;
2021/11/20 03:37:17;;;;;;;16.4;10.2;;;;;;;3.96;80.8584;96329.92;;;;
2021/11/20 03:38:17;;;;;;;16.4;10.2;;;;;;;3.96;80.8584;96329.92;;;;
2021/11/20 03:39:18;;;;;;;16.4;10.2;;;;;;;3.96;80.8584;96329.92;;;;
2021/11/20 03:40:18;;;;;;;16.4;10.2;;;;;;;3.96;80.8584;96329.92;;;;
2021/11/20 03:41:20;;;;;;;16.4;10.2;;;;;;;3.96;80.8584;96329.92;;;;
2021/11/20 03:42:21;;;;;;;16.4;10.2;;;;;;;3.96;80.8584;96329.92;;;;
2021/11/20 03:43:22;;;;;;;16.4;10.2;;;;;;;3.96;80.8584;96329.92;;;;
2021/11/20 03:44:23;;;;;;;15.55;10.3;;;;;;;4.04;80.92676;96324.16;;;;
2021/11/20 03:45:23;;;;;;;15.55;10.3;;;;;;;4.04;80.92676;96324.16;;;;
2021/11/20 03:46:27;;;;;;;15.55;10.3;;;;;;;4.04;80.92676;96324.16;;;;
2021/11/20 03:47:28;;;;;;;15.55;10.3;;;;;;;4.04;80.92676;96324.16;;;;
2021/11/20 03:48:28;;;;;;;15.55;10.3;;;;;;;4.04;80.92676;96324.16;;;;
2021/11/20 03:49:29;;;;;;;15.55;10.3;;;;;;;4.04;80.92676;96324.16;;;;
2021/11/20 03:50:29;;;;;;;15.55;10.3;;;;;;;4.04;80.92676;96324.16;;;;
2021/11/20 03:51:31;;;;;;;15.55;10.3;;;;;;;4.04;80.92676;96324.16;;;;
2021/11/20 03:52:32;;;;;;;15.55;10.3;;;;;;;4.04;80.92676;96324.16;;;;
2021/11/20 03:53:33;;;;;;;15.55;10.3;;;;;;;4.04;80.92676;96324.16;;;;
2021/11/20 03:54:34;;;;;;;14.65;9.749999;;;;;;;4.09;81.08105;96326.31;;;;
2021/11/20 03:55:34;;;;;;;14.65;9.749999;;;;;;;4.09;81.08105;96326.31;;;;
2021/11/20 03:56:38;;;;;;;14.65;9.749999;;;;;;;4.09;81.08105;96326.31;;;;
2021/11/20 03:57:39;;;;;;;14.65;9.749999;;;;;;;4.09;81.08105;96326.31;;;;
2021/11/20 03:58:40;;;;;;;14.65;9.749999;;;;;;;4.09;81.08105;96326.31;;;;
2021/11/20 03:59:41;;;;;;;14.65;9.749999;;;;;;;4.09;81.08105;96326.31;;;;
2021/11/20 04:00:41;;;;;;;14.65;9.749999;;;;;;;4.09;81.08105;96326.31;;;;
2021/11/20 04:01:46;;;;;;;14.65;9.749999;;;;;;;4.09;81.08105;96326.31;;;;
2021/11/20 04:02:48;;;;;;;14.65;9.749999;;;;;;;4.09;81.08105;96326.31;;;;
2021/11/20 04:03:49;;;;;;;14.65;9.749999;;;;;;;4.09;81.08105;96326.31;;;;
2021/11/20 04:04:50;;;;;;;14.65;9.749999;;;;;;;4.09;81.08105;96326.31;;;;
2021/11/20 04:05:50;;;;;;;14.85;9.750001;;;;;;;4.13;81.1748;96312.95;;;;
2021/11/20 04:06:53;;;;;;;14.85;9.750001;;;;;;;4.13;81.1748;96312.95;;;;
2021/11/20 04:07:54;;;;;;;14.85;9.750001;;;;;;;4.13;81.1748;96312.95;;;;
2021/11/20 04:08:54;;;;;;;14.85;9.750001;;;;;;;4.13;81.1748;96312.95;;;;
2021/11/20 04:09:55;;;;;;;14.85;9.750001;;;;;;;4.13;81.1748;96312.95;;;;
2021/11/20 04:10:55;;;;;;;14.85;9.750001;;;;;;;4.13;81.1748;96312.95;;;;
2021/11/20 04:11:58;;;;;;;14.85;9.750001;;;;;;;4.13;81.1748;96312.95;;;;
2021/11/20 04:12:59;;;;;;;14.85;9.750001;;;;;;;4.13;81.1748;96312.95;;;;
2021/11/20 04:14:00;;;;;;;14.85;9.750001;;;;;;;4.13;81.1748;96312.95;;;;
2021/11/20 04:15:01;;;;;;;14.85;9.750001;;;;;;;4.13;81.1748;96312.95;;;;
2021/11/20 04:16:03;;;;;;;14.5;9.550002;;;;;;;4.17;81.30762;96304.43;;;;
2021/11/20 04:17:06;;;;;;;14.5;9.550002;;;;;;;4.17;81.30762;96304.43;;;;
2021/11/20 04:18:07;;;;;;;14.5;9.550002;;;;;;;4.17;81.30762;96304.43;;;;
2021/11/20 04:19:08;;;;;;;14.5;9.550002;;;;;;;4.17;81.30762;96304.43;;;;
2021/11/20 04:20:09;;;;;;;14.5;9.550002;;;;;;;4.17;81.30762;96304.43;;;;
2021/11/20 04:21:13;;;;;;;14.5;9.550002;;;;;;;4.17;81.30762;96304.43;;;;
2021/11/20 04:22:15;;;;;;;14.5;9.550002;;;;;;;4.17;81.30762;96304.43;;;;
2021/11/20 04:23:16;;;;;;;14.5;9.550002;;;;;;;4.17;81.30762;96304.43;;;;
2021/11/20 04:24:17;;;;;;;14.5;9.550002;;;;;;;4.17;81.30762;96304.43;;;;
2021/11/20 04:25:17;;;;;;;14.5;9.550002;;;;;;;4.17;81.30762;96304.43;;;;
2021/11/20 04:26:22;;;;;;;14.5;9.550002;;;;;;;4.17;81.30762;96304.43;;;;
2021/11/20 04:27:25;;;;;;;15.65;9.650001;;;;;;;4.2;81.4082;96296.55;;;;
2021/11/20 04:28:26;;;;;;;15.65;9.650001;;;;;;;4.2;81.4082;96296.55;;;;
2021/11/20 04:29:26;;;;;;;15.65;9.650001;;;;;;;4.2;81.4082;96296.55;;;;
2021/11/20 04:30:27;;;;;;;15.65;9.650001;;;;;;;4.2;81.4082;96296.55;;;;
2021/11/20 04:31:28;;;;;;;15.65;9.650001;;;;;;;4.2;81.4082;96296.55;;;;
2021/11/20 04:32:29;;;;;;;15.65;9.650001;;;;;;;4.2;81.4082;96296.55;;;;
2021/11/20 04:33:29;;;;;;;15.65;9.650001;;;;;;;4.2;81.4082;96296.55;;;;
2021/11/20 04:34:30;;;;;;;15.65;9.650001;;;;;;;4.2;81.4082;96296.55;;;;
2021/11/20 04:35:31;;;;;;;15.65;9.650001;;;;;;;4.2;81.4082;96296.55;;;;
2021/11/20 04:36:32;;;;;;;15.65;9.650001;;;;;;;4.2;81.4082;96296.55;;;;
2021/11/20 04:37:33;;;;;;;13.6;9.25;;;;;;;4.16;81.63184;96293.39;;;;
2021/11/20 04:38:35;;;;;;;13.6;9.25;;;;;;;4.16;81.63184;96293.39;;;;
2021/11/20 04:39:35;;;;;;;13.6;9.25;;;;;;;4.16;81.63184;96293.39;;;;
2021/11/20 04:40:36;;;;;;;13.6;9.25;;;;;;;4.16;81.63184;96293.39;;;;
2021/11/20 04:41:38;;;;;;;13.6;9.25;;;;;;;4.16;81.63184;96293.39;;;;
2021/11/20 04:42:39;;;;;;;13.6;9.25;;;;;;;4.16;81.63184;96293.39;;;;
2021/11/20 04:43:41;;;;;;;13.6;9.25;;;;;;;4.16;81.63184;96293.39;;;;
2021/11/20 04:44:43;;;;;;;13.6;9.25;;;;;;;4.16;81.63184;96293.39;;;;
2021/11/20 04:45:47;;;;;;;13.6;9.25;;;;;;;4.16;81.63184;96293.39;;;;
2021/11/20 04:46:48;;;;;;;13.6;9.25;;;;;;;4.16;81.63184;96293.39;;;;
2021/11/20 04:47:48;;;;;;;13.6;9.25;;;;;;;4.16;81.63184;96293.39;;;;
2021/11/20 04:48:49;;;;;;;13.6;9.25;;;;;;;4.16;81.63184;96293.39;;;;
2021/11/20 04:49:51;;;;;;;13.6;9.25;;;;;;;4.16;81.63184;96293.39;;;;
2021/11/20 04:50:51;;;;;;;13.6;9.25;;;;;;;4.16;81.63184;96293.39;;;;
2021/11/20 04:51:54;;;;;;;13.6;9.25;;;;;;;4.16;81.63184;96293.39;;;;
2021/11/20 04:52:55;;;;;;;13.6;9.25;;;;;;;4.16;81.63184;96293.39;;;;
2021/11/20 04:53:55;;;;;;;13.6;9.25;;;;;;;4.16;81.63184;96293.39;;;;
2021/11/20 04:54:56;;;;;;;13.6;9.25;;;;;;;4.16;81.63184;96293.39;;;;
2021/11/20 04:55:58;;;;;;;13.6;9.25;;;;;;;4.16;81.63184;96293.39;;;;
2021/11/20 04:56:58;;;;;;;13.6;9.25;;;;;;;4.16;81.63184;96293.39;;;;
2021/11/20 04:57:59;;;;;;;13.6;9.25;;;;;;;4.16;81.63184;96293.39;;;;
2021/11/20 04:59:00;;;;;;;13.6;8.6;;;;;;;4.17;81.92871;96283.04;;;;
2021/11/20 05:00:00;;;;;;;13.6;8.6;;;;;;;4.17;81.92871;96283.04;;;;
2021/11/20 05:01:03;;;;;;;13.6;8.6;;;;;;;4.17;81.92871;96283.04;;;;
2021/11/20 05:02:04;;;;;;;13.6;8.6;;;;;;;4.17;81.92871;96283.04;;;;
2021/11/20 05:03:07;;;;;;;13.6;8.6;;;;;;;4.17;81.92871;96283.04;;;;
2021/11/20 05:04:08;;;;;;;13.6;8.6;;;;;;;4.17;81.92871;96283.04;;;;
2021/11/20 05:05:08;;;;;;;13.6;8.6;;;;;;;4.17;81.92871;96283.04;;;;
2021/11/20 05:06:09;;;;;;;13.6;8.6;;;;;;;4.17;81.92871;96283.04;;;;
2021/11/20 05:07:10;;;;;;;13.6;8.6;;;;;;;4.17;81.92871;96283.04;;;;
2021/11/20 05:08:11;;;;;;;13.6;8.6;;;;;;;4.17;81.92871;96283.04;;;;
2021/11/20 05:09:12;;;;;;;11.95;8.249999;;;;;;;4.17;82.0332;96276.37;;;;
2021/11/20 05:10:12;;;;;;;11.95;8.249999;;;;;;;4.17;82.0332;96276.37;;;;
2021/11/20 05:11:13;;;;;;;11.95;8.249999;;;;;;;4.17;82.0332;96276.37;;;;
2021/11/20 05:12:15;;;;;;;11.95;8.249999;;;;;;;4.17;82.0332;96276.37;;;;
2021/11/20 05:13:16;;;;;;;11.95;8.249999;;;;;;;4.17;82.0332;96276.37;;;;
2021/11/20 05:14:18;;;;;;;11.95;8.249999;;;;;;;4.17;82.0332;96276.37;;;;
2021/11/20 05:15:19;;;;;;;11.95;8.249999;;;;;;;4.17;82.0332;96276.37;;;;
2021/11/20 05:16:20;;;;;;;11.95;8.249999;;;;;;;4.17;82.0332;96276.37;;;;
2021/11/20 05:17:21;;;;;;;11.95;8.249999;;;;;;;4.17;82.0332;96276.37;;;;
2021/11/20 05:18:21;;;;;;;11.95;8.249999;;;;;;;4.17;82.0332;96276.37;;;;
2021/11/20 05:19:22;;;;;;;11.95;8.249999;;;;;;;4.17;82.0332;96276.37;;;;
2021/11/20 05:20:23;;;;;;;11.95;7.899999;;;;;;;4.09;82.10352;96265.26;;;;
2021/11/20 05:21:24;;;;;;;11.95;7.899999;;;;;;;4.09;82.10352;96265.26;;;;
2021/11/20 05:22:24;;;;;;;11.95;7.899999;;;;;;;4.09;82.10352;96265.26;;;;
2021/11/20 05:23:25;;;;;;;11.95;7.899999;;;;;;;4.09;82.10352;96265.26;;;;
2021/11/20 05:24:27;;;;;;;11.95;7.899999;;;;;;;4.09;82.10352;96265.26;;;;
2021/11/20 05:25:27;;;;;;;11.95;7.899999;;;;;;;4.09;82.10352;96265.26;;;;
2021/11/20 05:26:28;;;;;;;11.95;7.899999;;;;;;;4.09;82.10352;96265.26;;;;
2021/11/20 05:27:29;;;;;;;11.95;7.899999;;;;;;;4.09;82.10352;96265.26;;;;
2021/11/20 05:28:30;;;;;;;11.95;7.899999;;;;;;;4.09;82.10352;96265.26;;;;
2021/11/20 05:29:37;;;;;;;11.95;7.899999;;;;;;;4.09;82.10352;96265.26;;;;
2021/11/20 05:30:38;;;;;;;11.1;7.45;;;;;;;3.99;82.43066;96264.64;;;;
2021/11/20 05:31:41;;;;;;;11.1;7.45;;;;;;;3.99;82.43066;96264.64;;;;
2021/11/20 05:32:42;;;;;;;11.1;7.45;;;;;;;3.99;82.43066;96264.64;;;;
2021/11/20 05:33:43;;;;;;;11.1;7.45;;;;;;;3.99;82.43066;96264.64;;;;
2021/11/20 05:34:46;;;;;;;11.1;7.45;;;;;;;3.99;82.43066;96264.64;;;;
2021/11/20 05:35:46;;;;;;;11.1;7.45;;;;;;;3.99;82.43066;96264.64;;;;
2021/11/20 05:36:48;;;;;;;11.1;7.45;;;;;;;3.99;82.43066;96264.64;;;;
2021/11/20 05:37:49;;;;;;;11.1;7.45;;;;;;;3.99;82.43066;96264.64;;;;
2021/11/20 05:38:50;;;;;;;11.1;7.45;;;;;;;3.99;82.43066;96264.64;;;;
2021/11/20 05:39:51;;;;;;;11.1;7.45;;;;;;;3.99;82.43066;96264.64;;;;
2021/11/20 05:40:51;;;;;;;11.1;7.45;;;;;;;3.99;82.43066;96264.64;;;;
2021/11/20 05:41:52;;;;;;;9.25;6.5;;;;;;;3.96;82.67578;96259.23;;;;
2021/11/20 05:42:53;;;;;;;9.25;6.5;;;;;;;3.96;82.67578;96259.23;;;;
2021/11/20 05:43:56;;;;;;;9.25;6.5;;;;;;;3.96;82.67578;96259.23;;;;
2021/11/20 05:44:57;;;;;;;9.25;6.5;;;;;;;3.96;82.67578;96259.23;;;;
2021/11/20 05:45:58;;;;;;;9.25;6.5;;;;;;;3.96;82.67578;96259.23;;;;
2021/11/20 05:47:03;;;;;;;9.25;6.5;;;;;;;3.96;82.67578;96259.23;;;;
2021/11/20 05:48:04;;;;;;;9.25;6.5;;;;;;;3.96;82.67578;96259.23;;;;
2021/11/20 05:49:06;;;;;;;9.25;6.5;;;;;;;3.96;82.67578;96259.23;;;;
2021/11/20 05:50:07;;;;;;;9.25;6.5;;;;;;;3.96;82.67578;96259.23;;;;
2021/11/20 05:51:09;;;;;;;9.25;6.5;;;;;;;3.96;82.67578;96259.23;;;;
2021/11/20 05:52:09;;;;;;;8.4;5.9;;;;;;;3.94;82.76855;96264.72;;;;
2021/11/20 05:53:12;;;;;;;8.4;5.9;;;;;;;3.94;82.76855;96264.72;;;;
2021/11/20 05:54:15;;;;;;;8.4;5.9;;;;;;;3.94;82.76855;96264.72;;;;
2021/11/20 05:55:16;;;;;;;8.4;5.9;;;;;;;3.94;82.76855;96264.72;;;;
2021/11/20 05:56:18;;;;;;;8.4;5.9;;;;;;;3.94;82.76855;96264.72;;;;
2021/11/20 05:57:20;;;;;;;8.4;5.9;;;;;;;3.94;82.76855;96264.72;;;;
2021/11/20 05:58:21;;;;;;;8.4;5.9;;;;;;;3.94;82.76855;96264.72;;;;
2021/11/20 05:59:22;;;;;;;8.4;5.9;;;;;;;3.94;82.76855;96264.72;;;;
2021/11/20 06:00:23;;;;;;;8.4;5.9;;;;;;;3.94;82.76855;96264.72;;;;